Arapaho, Oklahoma
Current Conditions -  °F | °C
As of 6:15 PM on Wednesday 26 Nov 2014 (Local Time) from KCLK Reporting Station
Clear Clear  
Wind Chill: 37°   Ceiling: Unl
Heat Index: 43°   Visibility: 10mi
Dew Point: 19°   Wind: 9mph
Humidity: 39%   Direction: 360°N
Pressure: 30.32"   Gusts: NA
Location:  35.58°N, 98.96°W
Report Text: KCLK 270015Z AUTO 36008KT 10SM CLR 06/M07 A3032 RMK AO2
Loading
Personal Weather Stations






























Interactive Weather Map New forecast layout! Learn more

10-Day Weather Forecast

Advertisements
Track Severe Weather on mobile